sensor_id;sensor_type;location;lat;lon;timestamp;P1;durP1;ratioP1;P2;durP2;ratioP2
68866;SDS011;56451;44.804;20.476;2024-01-06T00:01:02;16.05;;;7.25;;
68866;SDS011;56451;44.804;20.476;2024-01-06T00:03:28;14.20;;;6.73;;
68866;SDS011;56451;44.804;20.476;2024-01-06T00:05:54;15.00;;;6.88;;
68866;SDS011;56451;44.804;20.476;2024-01-06T00:08:40;14.15;;;6.47;;
68866;SDS011;56451;44.804;20.476;2024-01-06T00:11:06;11.73;;;6.90;;
68866;SDS011;56451;44.804;20.476;2024-01-06T00:13:52;14.37;;;6.20;;
68866;SDS011;56451;44.804;20.476;2024-01-06T00:16:19;11.45;;;6.07;;
68866;SDS011;56451;44.804;20.476;2024-01-06T00:18:46;13.38;;;6.25;;
68866;SDS011;56451;44.804;20.476;2024-01-06T00:21:13;12.57;;;6.47;;
68866;SDS011;56451;44.804;20.476;2024-01-06T00:23:59;9.98;;;5.85;;
68866;SDS011;56451;44.804;20.476;2024-01-06T00:26:25;10.77;;;5.37;;
68866;SDS011;56451;44.804;20.476;2024-01-06T00:29:11;10.88;;;5.80;;
68866;SDS011;56451;44.804;20.476;2024-01-06T00:31:37;10.93;;;5.40;;
68866;SDS011;56451;44.804;20.476;2024-01-06T00:34:03;11.85;;;5.45;;
68866;SDS011;56451;44.804;20.476;2024-01-06T00:36:29;9.50;;;4.90;;
68866;SDS011;56451;44.804;20.476;2024-01-06T00:38:55;12.00;;;5.28;;
68866;SDS011;56451;44.804;20.476;2024-01-06T00:41:22;8.30;;;4.88;;
68866;SDS011;56451;44.804;20.476;2024-01-06T00:44:08;6.97;;;4.30;;
68866;SDS011;56451;44.804;20.476;2024-01-06T00:46:54;11.63;;;4.88;;
68866;SDS011;56451;44.804;20.476;2024-01-06T00:49:20;7.73;;;3.97;;
68866;SDS011;56451;44.804;20.476;2024-01-06T00:51:46;7.35;;;3.80;;
68866;SDS011;56451;44.804;20.476;2024-01-06T00:54:32;7.60;;;4.00;;
68866;SDS011;56451;44.804;20.476;2024-01-06T00:57:18;9.68;;;4.10;;
68866;SDS011;56451;44.804;20.476;2024-01-06T01:00:05;5.83;;;3.43;;
68866;SDS011;56451;44.804;20.476;2024-01-06T01:02:31;6.85;;;3.28;;
68866;SDS011;56451;44.804;20.476;2024-01-06T01:04:58;6.60;;;3.78;;
68866;SDS011;56451;44.804;20.476;2024-01-06T01:07:24;7.30;;;3.58;;
68866;SDS011;56451;44.804;20.476;2024-01-06T01:09:52;7.00;;;3.72;;
68866;SDS011;56451;44.804;20.476;2024-01-06T01:12:18;5.77;;;3.50;;
68866;SDS011;56451;44.804;20.476;2024-01-06T01:15:06;8.18;;;3.33;;
68866;SDS011;56451;44.804;20.476;2024-01-06T01:17:52;7.78;;;3.33;;
68866;SDS011;56451;44.804;20.476;2024-01-06T01:20:23;6.28;;;2.90;;
68866;SDS011;56451;44.804;20.476;2024-01-06T01:22:50;6.13;;;3.07;;
68866;SDS011;56451;44.804;20.476;2024-01-06T01:25:16;7.57;;;3.05;;
68866;SDS011;56451;44.804;20.476;2024-01-06T01:27:42;9.18;;;3.90;;
68866;SDS011;56451;44.804;20.476;2024-01-06T01:30:08;6.38;;;2.92;;
68866;SDS011;56451;44.804;20.476;2024-01-06T01:32:34;6.55;;;3.15;;
68866;SDS011;56451;44.804;20.476;2024-01-06T01:35:00;4.47;;;2.40;;
68866;SDS011;56451;44.804;20.476;2024-01-06T01:37:27;4.88;;;2.65;;
68866;SDS011;56451;44.804;20.476;2024-01-06T01:39:52;6.60;;;2.60;;
68866;SDS011;56451;44.804;20.476;2024-01-06T01:42:18;4.95;;;2.30;;
68866;SDS011;56451;44.804;20.476;2024-01-06T01:44:45;4.37;;;2.57;;
68866;SDS011;56451;44.804;20.476;2024-01-06T01:47:31;6.72;;;2.63;;
68866;SDS011;56451;44.804;20.476;2024-01-06T01:50:17;6.10;;;2.72;;
68866;SDS011;56451;44.804;20.476;2024-01-06T01:53:04;4.43;;;2.28;;
68866;SDS011;56451;44.804;20.476;2024-01-06T01:55:51;3.55;;;2.22;;
68866;SDS011;56451;44.804;20.476;2024-01-06T01:58:18;5.57;;;2.43;;
68866;SDS011;56451;44.804;20.476;2024-01-06T02:01:04;5.75;;;2.28;;
68866;SDS011;56451;44.804;20.476;2024-01-06T02:03:50;6.53;;;2.33;;
68866;SDS011;56451;44.804;20.476;2024-01-06T02:06:17;4.93;;;2.42;;
68866;SDS011;56451;44.804;20.476;2024-01-06T02:09:03;4.25;;;2.22;;
68866;SDS011;56451;44.804;20.476;2024-01-06T02:11:50;4.33;;;2.10;;
68866;SDS011;56451;44.804;20.476;2024-01-06T02:14:36;5.00;;;2.53;;
68866;SDS011;56451;44.804;20.476;2024-01-06T02:17:22;3.80;;;2.10;;
68866;SDS011;56451;44.804;20.476;2024-01-06T02:20:08;6.28;;;2.30;;
68866;SDS011;56451;44.804;20.476;2024-01-06T02:22:55;5.53;;;2.40;;
68866;SDS011;56451;44.804;20.476;2024-01-06T02:25:41;4.47;;;2.23;;
68866;SDS011;56451;44.804;20.476;2024-01-06T02:28:27;7.85;;;2.63;;
68866;SDS011;56451;44.804;20.476;2024-01-06T02:31:13;4.57;;;2.30;;
68866;SDS011;56451;44.804;20.476;2024-01-06T02:33:59;4.53;;;1.88;;
68866;SDS011;56451;44.804;20.476;2024-01-06T02:36:45;4.03;;;1.80;;
68866;SDS011;56451;44.804;20.476;2024-01-06T02:39:28;3.73;;;2.50;;
68866;SDS011;56451;44.804;20.476;2024-01-06T02:41:54;5.40;;;2.20;;
68866;SDS011;56451;44.804;20.476;2024-01-06T02:44:21;4.80;;;2.10;;
68866;SDS011;56451;44.804;20.476;2024-01-06T02:46:47;5.43;;;2.65;;
68866;SDS011;56451;44.804;20.476;2024-01-06T02:49:13;7.30;;;3.15;;
68866;SDS011;56451;44.804;20.476;2024-01-06T02:51:40;5.87;;;2.93;;
68866;SDS011;56451;44.804;20.476;2024-01-06T02:54:26;3.85;;;2.05;;
68866;SDS011;56451;44.804;20.476;2024-01-06T02:57:12;5.28;;;2.50;;
68866;SDS011;56451;44.804;20.476;2024-01-06T02:59:59;6.32;;;2.65;;
68866;SDS011;56451;44.804;20.476;2024-01-06T03:02:45;5.50;;;2.85;;
68866;SDS011;56451;44.804;20.476;2024-01-06T03:05:12;5.70;;;2.87;;
68866;SDS011;56451;44.804;20.476;2024-01-06T03:07:38;7.57;;;2.40;;
68866;SDS011;56451;44.804;20.476;2024-01-06T03:10:24;5.53;;;2.40;;
68866;SDS011;56451;44.804;20.476;2024-01-06T03:12:50;4.53;;;2.60;;
68866;SDS011;56451;44.804;20.476;2024-01-06T03:15:16;4.05;;;1.98;;
68866;SDS011;56451;44.804;20.476;2024-01-06T03:17:42;5.80;;;2.60;;
68866;SDS011;56451;44.804;20.476;2024-01-06T03:20:08;5.38;;;2.17;;
68866;SDS011;56451;44.804;20.476;2024-01-06T03:22:34;5.72;;;2.50;;
68866;SDS011;56451;44.804;20.476;2024-01-06T03:25:21;4.88;;;2.85;;
68866;SDS011;56451;44.804;20.476;2024-01-06T03:28:07;3.67;;;2.45;;
68866;SDS011;56451;44.804;20.476;2024-01-06T03:30:33;4.60;;;2.33;;
68866;SDS011;56451;44.804;20.476;2024-01-06T03:33:19;7.00;;;2.15;;
68866;SDS011;56451;44.804;20.476;2024-01-06T03:36:06;7.57;;;2.50;;
68866;SDS011;56451;44.804;20.476;2024-01-06T03:38:52;5.10;;;2.13;;
68866;SDS011;56451;44.804;20.476;2024-01-06T03:41:38;5.20;;;2.53;;
68866;SDS011;56451;44.804;20.476;2024-01-06T03:44:05;3.90;;;2.17;;
68866;SDS011;56451;44.804;20.476;2024-01-06T03:46:31;4.25;;;2.42;;
68866;SDS011;56451;44.804;20.476;2024-01-06T03:49:18;4.85;;;2.25;;
68866;SDS011;56451;44.804;20.476;2024-01-06T03:52:04;4.10;;;2.22;;
68866;SDS011;56451;44.804;20.476;2024-01-06T03:54:50;4.00;;;2.20;;
68866;SDS011;56451;44.804;20.476;2024-01-06T03:57:36;5.27;;;2.77;;
68866;SDS011;56451;44.804;20.476;2024-01-06T04:00:22;5.72;;;2.47;;
68866;SDS011;56451;44.804;20.476;2024-01-06T04:02:51;5.75;;;1.95;;
68866;SDS011;56451;44.804;20.476;2024-01-06T04:05:18;5.75;;;2.42;;
68866;SDS011;56451;44.804;20.476;2024-01-06T04:07:44;5.13;;;2.50;;
68866;SDS011;56451;44.804;20.476;2024-01-06T04:10:10;3.38;;;2.25;;
68866;SDS011;56451;44.804;20.476;2024-01-06T04:12:56;6.20;;;2.30;;
68866;SDS011;56451;44.804;20.476;2024-01-06T04:15:42;4.82;;;2.15;;
68866;SDS011;56451;44.804;20.476;2024-01-06T04:18:28;4.45;;;2.40;;
68866;SDS011;56451;44.804;20.476;2024-01-06T04:21:15;7.50;;;2.63;;
68866;SDS011;56451;44.804;20.476;2024-01-06T04:24:00;4.55;;;2.53;;
68866;SDS011;56451;44.804;20.476;2024-01-06T04:26:27;4.85;;;2.38;;
68866;SDS011;56451;44.804;20.476;2024-01-06T04:29:13;4.78;;;2.05;;
68866;SDS011;56451;44.804;20.476;2024-01-06T04:31:59;6.50;;;1.93;;
68866;SDS011;56451;44.804;20.476;2024-01-06T04:34:26;6.80;;;2.63;;
68866;SDS011;56451;44.804;20.476;2024-01-06T04:36:52;5.13;;;2.10;;
68866;SDS011;56451;44.804;20.476;2024-01-06T04:39:18;6.93;;;2.42;;
68866;SDS011;56451;44.804;20.476;2024-01-06T04:41:44;4.70;;;2.38;;
68866;SDS011;56451;44.804;20.476;2024-01-06T04:44:10;3.33;;;2.20;;
68866;SDS011;56451;44.804;20.476;2024-01-06T04:46:36;7.63;;;2.20;;
68866;SDS011;56451;44.804;20.476;2024-01-06T04:49:22;6.40;;;2.45;;
68866;SDS011;56451;44.804;20.476;2024-01-06T04:52:08;4.60;;;2.42;;
68866;SDS011;56451;44.804;20.476;2024-01-06T04:54:54;5.10;;;2.20;;
68866;SDS011;56451;44.804;20.476;2024-01-06T04:57:40;5.20;;;2.00;;
68866;SDS011;56451;44.804;20.476;2024-01-06T05:00:26;5.38;;;2.40;;
68866;SDS011;56451;44.804;20.476;2024-01-06T05:03:12;3.45;;;2.00;;
68866;SDS011;56451;44.804;20.476;2024-01-06T05:05:43;5.40;;;2.65;;
68866;SDS011;56451;44.804;20.476;2024-01-06T05:08:09;5.10;;;2.40;;
68866;SDS011;56451;44.804;20.476;2024-01-06T05:10:35;4.03;;;2.40;;
68866;SDS011;56451;44.804;20.476;2024-01-06T05:13:01;6.20;;;2.40;;
68866;SDS011;56451;44.804;20.476;2024-01-06T05:15:27;4.43;;;2.63;;
68866;SDS011;56451;44.804;20.476;2024-01-06T05:17:53;7.15;;;2.75;;
68866;SDS011;56451;44.804;20.476;2024-01-06T05:20:19;7.55;;;2.53;;
68866;SDS011;56451;44.804;20.476;2024-01-06T05:22:45;5.87;;;2.50;;
68866;SDS011;56451;44.804;20.476;2024-01-06T05:25:31;6.67;;;2.47;;
68866;SDS011;56451;44.804;20.476;2024-01-06T05:28:17;4.00;;;2.35;;
68866;SDS011;56451;44.804;20.476;2024-01-06T05:31:03;5.47;;;2.25;;
68866;SDS011;56451;44.804;20.476;2024-01-06T05:33:50;7.28;;;2.60;;
68866;SDS011;56451;44.804;20.476;2024-01-06T05:36:35;4.75;;;2.58;;
68866;SDS011;56451;44.804;20.476;2024-01-06T05:39:22;6.70;;;2.83;;
68866;SDS011;56451;44.804;20.476;2024-01-06T05:41:47;5.43;;;2.78;;
68866;SDS011;56451;44.804;20.476;2024-01-06T05:44:14;7.32;;;2.80;;
68866;SDS011;56451;44.804;20.476;2024-01-06T05:46:40;4.50;;;2.70;;
68866;SDS011;56451;44.804;20.476;2024-01-06T05:49:06;4.53;;;2.80;;
68866;SDS011;56451;44.804;20.476;2024-01-06T05:51:34;5.55;;;2.42;;
68866;SDS011;56451;44.804;20.476;2024-01-06T05:54:20;5.10;;;2.78;;
68866;SDS011;56451;44.804;20.476;2024-01-06T05:56:46;4.30;;;2.45;;
68866;SDS011;56451;44.804;20.476;2024-01-06T05:59:12;4.72;;;2.70;;
68866;SDS011;56451;44.804;20.476;2024-01-06T06:01:58;5.37;;;2.30;;
68866;SDS011;56451;44.804;20.476;2024-01-06T06:04:44;6.53;;;2.42;;
68866;SDS011;56451;44.804;20.476;2024-01-06T06:07:30;5.43;;;2.50;;
68866;SDS011;56451;44.804;20.476;2024-01-06T06:09:57;7.00;;;2.75;;
68866;SDS011;56451;44.804;20.476;2024-01-06T06:12:23;5.10;;;2.88;;
68866;SDS011;56451;44.804;20.476;2024-01-06T06:14:48;4.87;;;2.67;;
68866;SDS011;56451;44.804;20.476;2024-01-06T06:17:14;7.15;;;2.63;;
68866;SDS011;56451;44.804;20.476;2024-01-06T06:19:41;7.20;;;2.92;;
68866;SDS011;56451;44.804;20.476;2024-01-06T06:22:07;5.68;;;2.90;;
68866;SDS011;56451;44.804;20.476;2024-01-06T06:24:32;6.67;;;3.17;;
68866;SDS011;56451;44.804;20.476;2024-01-06T06:26:58;6.18;;;2.80;;
68866;SDS011;56451;44.804;20.476;2024-01-06T06:29:25;5.78;;;3.10;;
68866;SDS011;56451;44.804;20.476;2024-01-06T06:31:51;5.97;;;3.40;;
68866;SDS011;56451;44.804;20.476;2024-01-06T06:34:37;6.65;;;2.70;;
68866;SDS011;56451;44.804;20.476;2024-01-06T06:37:23;6.10;;;3.00;;
68866;SDS011;56451;44.804;20.476;2024-01-06T06:39:49;7.93;;;3.00;;
68866;SDS011;56451;44.804;20.476;2024-01-06T06:42:15;4.57;;;2.77;;
68866;SDS011;56451;44.804;20.476;2024-01-06T06:45:01;9.60;;;4.47;;
68866;SDS011;56451;44.804;20.476;2024-01-06T06:47:47;7.70;;;3.38;;
68866;SDS011;56451;44.804;20.476;2024-01-06T06:50:33;9.85;;;3.50;;
68866;SDS011;56451;44.804;20.476;2024-01-06T06:52:59;6.32;;;3.22;;
68866;SDS011;56451;44.804;20.476;2024-01-06T06:55:26;9.10;;;3.00;;
68866;SDS011;56451;44.804;20.476;2024-01-06T06:58:12;7.68;;;3.00;;
68866;SDS011;56451;44.804;20.476;2024-01-06T07:00:59;4.95;;;2.78;;
68866;SDS011;56451;44.804;20.476;2024-01-06T07:03:44;7.90;;;3.22;;
68866;SDS011;56451;44.804;20.476;2024-01-06T07:06:31;8.30;;;3.53;;
68866;SDS011;56451;44.804;20.476;2024-01-06T07:09:17;6.80;;;3.30;;
68866;SDS011;56451;44.804;20.476;2024-01-06T07:11:43;6.50;;;3.30;;
68866;SDS011;56451;44.804;20.476;2024-01-06T07:14:29;9.77;;;3.53;;
68866;SDS011;56451;44.804;20.476;2024-01-06T07:17:15;5.25;;;2.90;;
68866;SDS011;56451;44.804;20.476;2024-01-06T07:20:02;7.53;;;3.38;;
68866;SDS011;56451;44.804;20.476;2024-01-06T07:22:48;6.43;;;3.20;;
68866;SDS011;56451;44.804;20.476;2024-01-06T07:25:34;4.75;;;3.08;;
68866;SDS011;56451;44.804;20.476;2024-01-06T07:28:19;7.22;;;3.17;;
68866;SDS011;56451;44.804;20.476;2024-01-06T07:31:05;7.75;;;4.03;;
68866;SDS011;56451;44.804;20.476;2024-01-06T07:33:53;5.78;;;2.95;;
68866;SDS011;56451;44.804;20.476;2024-01-06T07:36:39;5.80;;;2.80;;
68866;SDS011;56451;44.804;20.476;2024-01-06T07:39:05;5.97;;;2.70;;
68866;SDS011;56451;44.804;20.476;2024-01-06T07:41:31;9.00;;;5.20;;
68866;SDS011;56451;44.804;20.476;2024-01-06T07:43:59;6.85;;;3.22;;
68866;SDS011;56451;44.804;20.476;2024-01-06T07:46:45;6.70;;;2.80;;
68866;SDS011;56451;44.804;20.476;2024-01-06T07:49:31;6.90;;;2.97;;
68866;SDS011;56451;44.804;20.476;2024-01-06T07:52:17;6.90;;;3.10;;
68866;SDS011;56451;44.804;20.476;2024-01-06T07:55:04;7.25;;;3.45;;
68866;SDS011;56451;44.804;20.476;2024-01-06T07:57:30;9.32;;;3.63;;
68866;SDS011;56451;44.804;20.476;2024-01-06T08:00:17;9.13;;;4.40;;
68866;SDS011;56451;44.804;20.476;2024-01-06T08:02:43;7.13;;;3.88;;
68866;SDS011;56451;44.804;20.476;2024-01-06T08:05:09;6.25;;;3.47;;
68866;SDS011;56451;44.804;20.476;2024-01-06T08:07:35;9.45;;;4.63;;
68866;SDS011;56451;44.804;20.476;2024-01-06T08:10:02;6.40;;;3.47;;
68866;SDS011;56451;44.804;20.476;2024-01-06T08:12:30;10.17;;;3.93;;
68866;SDS011;56451;44.804;20.476;2024-01-06T08:14:57;12.10;;;3.95;;
68866;SDS011;56451;44.804;20.476;2024-01-06T08:17:23;10.13;;;4.07;;
68866;SDS011;56451;44.804;20.476;2024-01-06T08:19:48;9.25;;;3.90;;
68866;SDS011;56451;44.804;20.476;2024-01-06T08:22:15;8.07;;;4.10;;
68866;SDS011;56451;44.804;20.476;2024-01-06T08:25:01;6.97;;;3.58;;
68866;SDS011;56451;44.804;20.476;2024-01-06T08:27:47;7.13;;;4.18;;
68866;SDS011;56451;44.804;20.476;2024-01-06T08:30:32;7.10;;;3.53;;
68866;SDS011;56451;44.804;20.476;2024-01-06T08:33:19;8.27;;;3.92;;
68866;SDS011;56451;44.804;20.476;2024-01-06T08:36:05;8.27;;;4.07;;
68866;SDS011;56451;44.804;20.476;2024-01-06T08:38:32;9.23;;;3.83;;
68866;SDS011;56451;44.804;20.476;2024-01-06T08:40:58;9.05;;;4.18;;
68866;SDS011;56451;44.804;20.476;2024-01-06T08:43:44;7.90;;;4.20;;
68866;SDS011;56451;44.804;20.476;2024-01-06T08:46:30;8.30;;;4.38;;
68866;SDS011;56451;44.804;20.476;2024-01-06T08:49:16;10.43;;;4.40;;
68866;SDS011;56451;44.804;20.476;2024-01-06T08:51:43;10.02;;;4.30;;
68866;SDS011;56451;44.804;20.476;2024-01-06T08:54:09;8.80;;;4.20;;
68866;SDS011;56451;44.804;20.476;2024-01-06T08:56:35;7.47;;;4.32;;
68866;SDS011;56451;44.804;20.476;2024-01-06T08:59:21;8.68;;;4.35;;
68866;SDS011;56451;44.804;20.476;2024-01-06T09:02:07;8.67;;;4.30;;
68866;SDS011;56451;44.804;20.476;2024-01-06T09:04:34;7.25;;;3.67;;
68866;SDS011;56451;44.804;20.476;2024-01-06T09:07:00;8.35;;;4.22;;
68866;SDS011;56451;44.804;20.476;2024-01-06T09:09:25;7.00;;;3.78;;
68866;SDS011;56451;44.804;20.476;2024-01-06T09:11:54;7.35;;;4.05;;
68866;SDS011;56451;44.804;20.476;2024-01-06T09:14:39;5.83;;;3.60;;
68866;SDS011;56451;44.804;20.476;2024-01-06T09:17:26;8.50;;;3.60;;
68866;SDS011;56451;44.804;20.476;2024-01-06T09:19:51;8.07;;;3.65;;
68866;SDS011;56451;44.804;20.476;2024-01-06T09:22:19;5.93;;;3.95;;
68866;SDS011;56451;44.804;20.476;2024-01-06T09:24:46;7.32;;;4.10;;
68866;SDS011;56451;44.804;20.476;2024-01-06T09:27:31;6.23;;;3.83;;
68866;SDS011;56451;44.804;20.476;2024-01-06T09:30:02;6.97;;;3.70;;
68866;SDS011;56451;44.804;20.476;2024-01-06T09:32:49;7.90;;;4.25;;
68866;SDS011;56451;44.804;20.476;2024-01-06T09:35:15;7.93;;;4.15;;
68866;SDS011;56451;44.804;20.476;2024-01-06T09:38:01;9.43;;;4.15;;
68866;SDS011;56451;44.804;20.476;2024-01-06T09:40:27;7.57;;;3.77;;
68866;SDS011;56451;44.804;20.476;2024-01-06T09:43:17;7.10;;;4.50;;
68866;SDS011;56451;44.804;20.476;2024-01-06T09:45:45;9.93;;;4.28;;
68866;SDS011;56451;44.804;20.476;2024-01-06T09:48:40;8.13;;;3.65;;
68866;SDS011;56451;44.804;20.476;2024-01-06T09:51:11;8.37;;;4.20;;
68866;SDS011;56451;44.804;20.476;2024-01-06T09:53:59;8.43;;;4.38;;
68866;SDS011;56451;44.804;20.476;2024-01-06T09:56:42;10.02;;;4.78;;
68866;SDS011;56451;44.804;20.476;2024-01-06T09:59:31;9.25;;;4.35;;
68866;SDS011;56451;44.804;20.476;2024-01-06T10:02:00;9.20;;;4.68;;
68866;SDS011;56451;44.804;20.476;2024-01-06T10:04:47;7.90;;;4.77;;
68866;SDS011;56451;44.804;20.476;2024-01-06T10:07:14;6.82;;;4.43;;
68866;SDS011;56451;44.804;20.476;2024-01-06T10:09:40;9.70;;;5.13;;
68866;SDS011;56451;44.804;20.476;2024-01-06T10:12:07;9.93;;;4.68;;
68866;SDS011;56451;44.804;20.476;2024-01-06T10:14:34;12.27;;;5.47;;
68866;SDS011;56451;44.804;20.476;2024-01-06T10:17:00;9.73;;;4.77;;
68866;SDS011;56451;44.804;20.476;2024-01-06T10:19:26;10.73;;;4.60;;
68866;SDS011;56451;44.804;20.476;2024-01-06T10:21:52;12.38;;;4.45;;
68866;SDS011;56451;44.804;20.476;2024-01-06T10:24:38;11.20;;;4.38;;
68866;SDS011;56451;44.804;20.476;2024-01-06T10:27:24;11.57;;;4.90;;
68866;SDS011;56451;44.804;20.476;2024-01-06T10:30:10;9.32;;;4.47;;
68866;SDS011;56451;44.804;20.476;2024-01-06T10:32:36;9.88;;;5.10;;
68866;SDS011;56451;44.804;20.476;2024-01-06T10:35:24;12.15;;;5.20;;
68866;SDS011;56451;44.804;20.476;2024-01-06T10:38:11;12.38;;;4.68;;
68866;SDS011;56451;44.804;20.476;2024-01-06T10:43:25;9.95;;;4.68;;
68866;SDS011;56451;44.804;20.476;2024-01-06T10:45:53;8.07;;;4.68;;
68866;SDS011;56451;44.804;20.476;2024-01-06T10:48:26;12.85;;;5.60;;
68866;SDS011;56451;44.804;20.476;2024-01-06T10:50:56;11.57;;;5.38;;
68866;SDS011;56451;44.804;20.476;2024-01-06T10:53:43;13.17;;;5.20;;
68866;SDS011;56451;44.804;20.476;2024-01-06T10:56:29;12.30;;;5.53;;
68866;SDS011;56451;44.804;20.476;2024-01-06T10:59:16;11.25;;;5.38;;
68866;SDS011;56451;44.804;20.476;2024-01-06T11:02:03;12.68;;;6.47;;
68866;SDS011;56451;44.804;20.476;2024-01-06T11:04:50;11.38;;;5.57;;
68866;SDS011;56451;44.804;20.476;2024-01-06T11:07:18;10.27;;;5.67;;
68866;SDS011;56451;44.804;20.476;2024-01-06T11:09:59;10.48;;;5.40;;
68866;SDS011;56451;44.804;20.476;2024-01-06T11:12:32;12.65;;;5.72;;
68866;SDS011;56451;44.804;20.476;2024-01-06T11:14:58;17.95;;;5.90;;
68866;SDS011;56451;44.804;20.476;2024-01-06T11:17:54;11.38;;;5.18;;
68866;SDS011;56451;44.804;20.476;2024-01-06T11:21:02;12.13;;;5.67;;
68866;SDS011;56451;44.804;20.476;2024-01-06T11:26:44;10.18;;;5.45;;
68866;SDS011;56451;44.804;20.476;2024-01-06T11:29:30;10.70;;;5.50;;
68866;SDS011;56451;44.804;20.476;2024-01-06T11:32:17;12.20;;;5.45;;
68866;SDS011;56451;44.804;20.476;2024-01-06T11:35:16;11.00;;;5.60;;
68866;SDS011;56451;44.804;20.476;2024-01-06T11:38:02;9.15;;;5.93;;
68866;SDS011;56451;44.804;20.476;2024-01-06T11:40:33;11.27;;;5.88;;
68866;SDS011;56451;44.804;20.476;2024-01-06T11:45:34;10.02;;;6.15;;
68866;SDS011;56451;44.804;20.476;2024-01-06T11:48:02;11.87;;;6.57;;
68866;SDS011;56451;44.804;20.476;2024-01-06T11:50:33;9.85;;;6.18;;
68866;SDS011;56451;44.804;20.476;2024-01-06T11:53:01;14.25;;;7.22;;
68866;SDS011;56451;44.804;20.476;2024-01-06T11:55:28;14.20;;;7.20;;
68866;SDS011;56451;44.804;20.476;2024-01-06T11:57:57;14.60;;;7.55;;
68866;SDS011;56451;44.804;20.476;2024-01-06T12:00:28;13.93;;;7.30;;
68866;SDS011;56451;44.804;20.476;2024-01-06T12:02:58;14.57;;;7.38;;
68866;SDS011;56451;44.804;20.476;2024-01-06T12:05:45;12.90;;;6.38;;
68866;SDS011;56451;44.804;20.476;2024-01-06T12:08:14;14.27;;;6.88;;
68866;SDS011;56451;44.804;20.476;2024-01-06T12:10:45;15.43;;;7.22;;
68866;SDS011;56451;44.804;20.476;2024-01-06T12:13:11;13.13;;;7.10;;
68866;SDS011;56451;44.804;20.476;2024-01-06T12:15:38;15.77;;;7.40;;
68866;SDS011;56451;44.804;20.476;2024-01-06T12:18:04;14.23;;;6.45;;
68866;SDS011;56451;44.804;20.476;2024-01-06T12:20:32;13.88;;;6.78;;
68866;SDS011;56451;44.804;20.476;2024-01-06T12:22:58;16.43;;;7.53;;
68866;SDS011;56451;44.804;20.476;2024-01-06T12:25:26;14.90;;;7.65;;
68866;SDS011;56451;44.804;20.476;2024-01-06T12:27:54;11.10;;;6.85;;
68866;SDS011;56451;44.804;20.476;2024-01-06T12:30:21;13.35;;;8.15;;
68866;SDS011;56451;44.804;20.476;2024-01-06T12:32:48;18.55;;;8.80;;
68866;SDS011;56451;44.804;20.476;2024-01-06T12:35:18;20.90;;;10.73;;
68866;SDS011;56451;44.804;20.476;2024-01-06T12:37:45;19.13;;;10.07;;
68866;SDS011;56451;44.804;20.476;2024-01-06T12:40:12;19.10;;;9.32;;
68866;SDS011;56451;44.804;20.476;2024-01-06T12:42:40;18.13;;;9.75;;
68866;SDS011;56451;44.804;20.476;2024-01-06T12:45:06;15.82;;;8.27;;
68866;SDS011;56451;44.804;20.476;2024-01-06T12:47:33;13.13;;;7.60;;
68866;SDS011;56451;44.804;20.476;2024-01-06T12:49:59;17.85;;;7.35;;
68866;SDS011;56451;44.804;20.476;2024-01-06T12:52:25;11.43;;;7.10;;
68866;SDS011;56451;44.804;20.476;2024-01-06T12:54:51;14.80;;;7.78;;
68866;SDS011;56451;44.804;20.476;2024-01-06T12:57:18;15.80;;;7.53;;
68866;SDS011;56451;44.804;20.476;2024-01-06T12:59:44;10.93;;;6.38;;
68866;SDS011;56451;44.804;20.476;2024-01-06T13:02:10;12.68;;;6.03;;
68866;SDS011;56451;44.804;20.476;2024-01-06T13:04:36;12.23;;;6.57;;
68866;SDS011;56451;44.804;20.476;2024-01-06T13:07:22;14.93;;;6.63;;
68866;SDS011;56451;44.804;20.476;2024-01-06T13:09:48;13.43;;;6.20;;
68866;SDS011;56451;44.804;20.476;2024-01-06T13:12:15;16.13;;;6.55;;
68866;SDS011;56451;44.804;20.476;2024-01-06T13:14:44;11.70;;;5.80;;
68866;SDS011;56451;44.804;20.476;2024-01-06T13:17:13;12.88;;;6.18;;
68866;SDS011;56451;44.804;20.476;2024-01-06T13:19:59;12.27;;;5.95;;
68866;SDS011;56451;44.804;20.476;2024-01-06T13:22:25;12.20;;;6.37;;
68866;SDS011;56451;44.804;20.476;2024-01-06T13:25:13;12.02;;;6.57;;
68866;SDS011;56451;44.804;20.476;2024-01-06T13:27:41;12.15;;;6.35;;
68866;SDS011;56451;44.804;20.476;2024-01-06T13:30:27;11.05;;;6.32;;
68866;SDS011;56451;44.804;20.476;2024-01-06T13:32:53;12.43;;;6.55;;
68866;SDS011;56451;44.804;20.476;2024-01-06T13:35:20;13.63;;;6.63;;
68866;SDS011;56451;44.804;20.476;2024-01-06T13:37:51;14.25;;;7.05;;
68866;SDS011;56451;44.804;20.476;2024-01-06T13:40:37;12.52;;;6.97;;
68866;SDS011;56451;44.804;20.476;2024-01-06T13:43:04;11.65;;;6.30;;
68866;SDS011;56451;44.804;20.476;2024-01-06T13:45:32;15.93;;;6.50;;
68866;SDS011;56451;44.804;20.476;2024-01-06T13:47:59;14.13;;;6.95;;
68866;SDS011;56451;44.804;20.476;2024-01-06T13:50:46;12.77;;;6.25;;
68866;SDS011;56451;44.804;20.476;2024-01-06T13:53:13;12.30;;;7.00;;
68866;SDS011;56451;44.804;20.476;2024-01-06T13:56:00;14.05;;;6.80;;
68866;SDS011;56451;44.804;20.476;2024-01-06T13:58:46;13.63;;;6.97;;
68866;SDS011;56451;44.804;20.476;2024-01-06T14:01:13;14.98;;;8.15;;
68866;SDS011;56451;44.804;20.476;2024-01-06T14:03:39;15.80;;;8.40;;
68866;SDS011;56451;44.804;20.476;2024-01-06T14:06:06;18.42;;;8.45;;
68866;SDS011;56451;44.804;20.476;2024-01-06T14:08:52;15.80;;;8.80;;
68866;SDS011;56451;44.804;20.476;2024-01-06T14:11:38;21.13;;;9.60;;
68866;SDS011;56451;44.804;20.476;2024-01-06T14:14:25;18.02;;;9.85;;
68866;SDS011;56451;44.804;20.476;2024-01-06T14:16:52;17.30;;;9.13;;
68866;SDS011;56451;44.804;20.476;2024-01-06T14:19:18;17.25;;;8.90;;
68866;SDS011;56451;44.804;20.476;2024-01-06T14:21:45;16.50;;;9.27;;
68866;SDS011;56451;44.804;20.476;2024-01-06T14:24:11;14.97;;;8.40;;
68866;SDS011;56451;44.804;20.476;2024-01-06T14:26:38;16.50;;;8.65;;
68866;SDS011;56451;44.804;20.476;2024-01-06T14:29:24;15.75;;;7.72;;
68866;SDS011;56451;44.804;20.476;2024-01-06T14:31:52;14.38;;;7.93;;
68866;SDS011;56451;44.804;20.476;2024-01-06T14:34:18;16.40;;;8.15;;
68866;SDS011;56451;44.804;20.476;2024-01-06T14:36:44;19.90;;;8.50;;
68866;SDS011;56451;44.804;20.476;2024-01-06T14:39:19;17.55;;;8.20;;
68866;SDS011;56451;44.804;20.476;2024-01-06T14:41:48;14.70;;;8.50;;
68866;SDS011;56451;44.804;20.476;2024-01-06T14:44:15;15.73;;;8.07;;
68866;SDS011;56451;44.804;20.476;2024-01-06T14:46:41;15.35;;;7.82;;
68866;SDS011;56451;44.804;20.476;2024-01-06T14:49:07;11.03;;;6.47;;
68866;SDS011;56451;44.804;20.476;2024-01-06T14:51:33;12.70;;;6.32;;
68866;SDS011;56451;44.804;20.476;2024-01-06T14:54:00;13.73;;;7.72;;
68866;SDS011;56451;44.804;20.476;2024-01-06T14:56:26;13.05;;;7.60;;
68866;SDS011;56451;44.804;20.476;2024-01-06T14:59:12;14.23;;;8.27;;
68866;SDS011;56451;44.804;20.476;2024-01-06T15:01:41;12.32;;;7.95;;
68866;SDS011;56451;44.804;20.476;2024-01-06T15:04:28;15.20;;;8.05;;
68866;SDS011;56451;44.804;20.476;2024-01-06T15:07:12;15.05;;;8.13;;
68866;SDS011;56451;44.804;20.476;2024-01-06T15:09:38;14.95;;;8.30;;
68866;SDS011;56451;44.804;20.476;2024-01-06T15:12:06;17.50;;;8.60;;
68866;SDS011;56451;44.804;20.476;2024-01-06T15:14:32;16.63;;;8.73;;
68866;SDS011;56451;44.804;20.476;2024-01-06T15:16:58;19.55;;;9.35;;
68866;SDS011;56451;44.804;20.476;2024-01-06T15:19:47;13.55;;;7.82;;
68866;SDS011;56451;44.804;20.476;2024-01-06T15:22:34;12.68;;;7.78;;